sensor_id;sensor_type;location;lat;lon;timestamp;temperature;humidity
22698;DHT22;11516;51.612;7.510;2022-11-20T00:00:43;-1.70;99.90
22698;DHT22;11516;51.612;7.510;2022-11-20T00:03:09;-1.80;99.90
22698;DHT22;11516;51.612;7.510;2022-11-20T00:05:34;-1.90;99.90
22698;DHT22;11516;51.612;7.510;2022-11-20T00:08:00;-2.00;99.90
22698;DHT22;11516;51.612;7.510;2022-11-20T00:10:25;-1.90;99.90
22698;DHT22;11516;51.612;7.510;2022-11-20T00:12:51;-1.80;99.90
22698;DHT22;11516;51.612;7.510;2022-11-20T00:15:17;-1.80;99.90
22698;DHT22;11516;51.612;7.510;2022-11-20T00:17:42;-1.70;99.90
22698;DHT22;11516;51.612;7.510;2022-11-20T00:20:08;-1.80;99.90
22698;DHT22;11516;51.612;7.510;2022-11-20T00:22:35;-1.80;99.90
22698;DHT22;11516;51.612;7.510;2022-11-20T00:25:00;-1.80;99.90
22698;DHT22;11516;51.612;7.510;2022-11-20T00:27:26;-1.80;99.90
22698;DHT22;11516;51.612;7.510;2022-11-20T00:29:51;-1.70;99.90
22698;DHT22;11516;51.612;7.510;2022-11-20T00:32:16;-1.80;99.90
22698;DHT22;11516;51.612;7.510;2022-11-20T00:34:42;-1.80;99.90
22698;DHT22;11516;51.612;7.510;2022-11-20T00:37:07;-1.80;99.90
22698;DHT22;11516;51.612;7.510;2022-11-20T00:39:33;-1.90;99.90
22698;DHT22;11516;51.612;7.510;2022-11-20T00:41:58;-1.90;99.90
22698;DHT22;11516;51.612;7.510;2022-11-20T00:44:24;-1.90;99.90
22698;DHT22;11516;51.612;7.510;2022-11-20T00:46:49;-2.00;99.90
22698;DHT22;11516;51.612;7.510;2022-11-20T00:49:15;-1.90;99.90
22698;DHT22;11516;51.612;7.510;2022-11-20T00:51:41;-2.00;99.90
22698;DHT22;11516;51.612;7.510;2022-11-20T00:54:06;-1.90;99.90
22698;DHT22;11516;51.612;7.510;2022-11-20T00:56:32;-1.90;99.90
22698;DHT22;11516;51.612;7.510;2022-11-20T00:58:59;-1.90;99.90
22698;DHT22;11516;51.612;7.510;2022-11-20T01:01:26;-1.90;99.90
22698;DHT22;11516;51.612;7.510;2022-11-20T01:03:53;-1.70;99.90
22698;DHT22;11516;51.612;7.510;2022-11-20T01:06:22;-1.70;99.90
22698;DHT22;11516;51.612;7.510;2022-11-20T01:08:49;-1.70;99.90
22698;DHT22;11516;51.612;7.510;2022-11-20T01:11:18;-1.80;99.90
22698;DHT22;11516;51.612;7.510;2022-11-20T01:13:46;-1.80;99.90
22698;DHT22;11516;51.612;7.510;2022-11-20T01:16:25;-1.70;99.90
22698;DHT22;11516;51.612;7.510;2022-11-20T01:18:53;-1.60;99.90
22698;DHT22;11516;51.612;7.510;2022-11-20T01:21:27;-1.70;99.90
22698;DHT22;11516;51.612;7.510;2022-11-20T01:23:53;-1.60;99.90
22698;DHT22;11516;51.612;7.510;2022-11-20T01:26:22;-1.70;99.90
22698;DHT22;11516;51.612;7.510;2022-11-20T01:28:49;-1.60;99.90
22698;DHT22;11516;51.612;7.510;2022-11-20T01:31:17;-1.60;99.90
22698;DHT22;11516;51.612;7.510;2022-11-20T01:33:44;-1.60;99.90
22698;DHT22;11516;51.612;7.510;2022-11-20T01:36:10;-1.60;99.90
22698;DHT22;11516;51.612;7.510;2022-11-20T01:38:35;-1.60;99.90
22698;DHT22;11516;51.612;7.510;2022-11-20T01:41:01;-1.60;99.90
22698;DHT22;11516;51.612;7.510;2022-11-20T01:43:27;-1.50;99.90
22698;DHT22;11516;51.612;7.510;2022-11-20T01:48:30;-1.60;99.90
22698;DHT22;11516;51.612;7.510;2022-11-20T01:50:57;-1.70;99.90
22698;DHT22;11516;51.612;7.510;2022-11-20T01:53:26;-1.70;99.90
22698;DHT22;11516;51.612;7.510;2022-11-20T01:55:55;-1.60;99.90
22698;DHT22;11516;51.612;7.510;2022-11-20T01:58:27;-1.50;99.90
22698;DHT22;11516;51.612;7.510;2022-11-20T02:00:54;-1.50;99.90
22698;DHT22;11516;51.612;7.510;2022-11-20T02:03:20;-1.40;99.90
22698;DHT22;11516;51.612;7.510;2022-11-20T02:06:04;-1.30;99.90
22698;DHT22;11516;51.612;7.510;2022-11-20T02:08:31;-1.30;99.90
22698;DHT22;11516;51.612;7.510;2022-11-20T02:10:58;-1.20;99.90
22698;DHT22;11516;51.612;7.510;2022-11-20T02:13:24;-1.00;99.90
22698;DHT22;11516;51.612;7.510;2022-11-20T02:16:24;-0.70;99.90
22698;DHT22;11516;51.612;7.510;2022-11-20T02:18:51;-0.60;99.90
22698;DHT22;11516;51.612;7.510;2022-11-20T02:24:03;-1.00;99.90
22698;DHT22;11516;51.612;7.510;2022-11-20T02:26:33;-1.00;99.90
22698;DHT22;11516;51.612;7.510;2022-11-20T02:29:01;-1.00;99.90
22698;DHT22;11516;51.612;7.510;2022-11-20T02:31:27;-0.90;99.90
22698;DHT22;11516;51.612;7.510;2022-11-20T02:33:56;-0.90;99.90
22698;DHT22;11516;51.612;7.510;2022-11-20T02:36:24;-0.80;99.90
22698;DHT22;11516;51.612;7.510;2022-11-20T02:38:51;-0.90;99.90
22698;DHT22;11516;51.612;7.510;2022-11-20T02:41:17;-0.90;99.90
22698;DHT22;11516;51.612;7.510;2022-11-20T02:43:42;-0.80;99.90
22698;DHT22;11516;51.612;7.510;2022-11-20T02:46:08;-0.70;99.90
22698;DHT22;11516;51.612;7.510;2022-11-20T02:48:34;-0.60;99.90
22698;DHT22;11516;51.612;7.510;2022-11-20T02:51:00;-0.60;99.90
22698;DHT22;11516;51.612;7.510;2022-11-20T02:53:25;-0.60;99.90
22698;DHT22;11516;51.612;7.510;2022-11-20T02:55:51;-0.50;99.90
22698;DHT22;11516;51.612;7.510;2022-11-20T02:58:16;-0.50;99.90
22698;DHT22;11516;51.612;7.510;2022-11-20T03:00:42;-0.60;99.90
22698;DHT22;11516;51.612;7.510;2022-11-20T03:03:08;-0.50;99.90
22698;DHT22;11516;51.612;7.510;2022-11-20T03:05:35;-0.60;99.90
22698;DHT22;11516;51.612;7.510;2022-11-20T03:08:00;-0.50;99.90
22698;DHT22;11516;51.612;7.510;2022-11-20T03:10:26;-0.50;99.90
22698;DHT22;11516;51.612;7.510;2022-11-20T03:12:55;-0.40;99.90
22698;DHT22;11516;51.612;7.510;2022-11-20T03:15:22;-0.50;99.90
22698;DHT22;11516;51.612;7.510;2022-11-20T03:17:48;-0.50;99.90
22698;DHT22;11516;51.612;7.510;2022-11-20T03:20:13;-0.60;99.90
22698;DHT22;11516;51.612;7.510;2022-11-20T03:22:39;-0.60;99.90
22698;DHT22;11516;51.612;7.510;2022-11-20T03:25:05;-0.50;99.90
22698;DHT22;11516;51.612;7.510;2022-11-20T03:27:34;-0.50;99.90
22698;DHT22;11516;51.612;7.510;2022-11-20T03:30:00;-0.50;99.90
22698;DHT22;11516;51.612;7.510;2022-11-20T03:32:26;-0.50;99.90
22698;DHT22;11516;51.612;7.510;2022-11-20T03:34:51;-0.40;99.90
22698;DHT22;11516;51.612;7.510;2022-11-20T03:37:17;-0.30;99.90
22698;DHT22;11516;51.612;7.510;2022-11-20T03:39:43;-0.30;99.90
22698;DHT22;11516;51.612;7.510;2022-11-20T03:42:09;-0.40;99.90
22698;DHT22;11516;51.612;7.510;2022-11-20T03:44:54;-0.50;99.90
22698;DHT22;11516;51.612;7.510;2022-11-20T03:47:20;-0.50;99.90
22698;DHT22;11516;51.612;7.510;2022-11-20T03:49:45;-0.40;99.90
22698;DHT22;11516;51.612;7.510;2022-11-20T03:52:11;-0.40;99.90
22698;DHT22;11516;51.612;7.510;2022-11-20T03:54:36;-0.40;99.90
22698;DHT22;11516;51.612;7.510;2022-11-20T03:57:02;-0.40;99.90
22698;DHT22;11516;51.612;7.510;2022-11-20T03:59:27;-0.60;99.90
22698;DHT22;11516;51.612;7.510;2022-11-20T04:01:53;-0.50;99.90
22698;DHT22;11516;51.612;7.510;2022-11-20T04:04:18;-0.50;99.90
22698;DHT22;11516;51.612;7.510;2022-11-20T04:06:44;-0.60;99.90
22698;DHT22;11516;51.612;7.510;2022-11-20T04:09:10;-0.50;99.90
22698;DHT22;11516;51.612;7.510;2022-11-20T04:11:37;-0.40;99.90
22698;DHT22;11516;51.612;7.510;2022-11-20T04:14:04;-0.50;99.90
22698;DHT22;11516;51.612;7.510;2022-11-20T04:16:34;-0.40;99.90
22698;DHT22;11516;51.612;7.510;2022-11-20T04:19:02;-0.20;99.90
22698;DHT22;11516;51.612;7.510;2022-11-20T04:21:28;-0.40;99.90
22698;DHT22;11516;51.612;7.510;2022-11-20T04:23:55;-0.40;99.90
22698;DHT22;11516;51.612;7.510;2022-11-20T04:26:22;-0.30;99.90
22698;DHT22;11516;51.612;7.510;2022-11-20T04:28:48;-0.30;99.90
22698;DHT22;11516;51.612;7.510;2022-11-20T04:31:16;-0.40;99.90
22698;DHT22;11516;51.612;7.510;2022-11-20T04:33:42;-0.40;99.90
22698;DHT22;11516;51.612;7.510;2022-11-20T04:36:12;-0.50;99.90
22698;DHT22;11516;51.612;7.510;2022-11-20T04:38:38;-0.50;99.90
22698;DHT22;11516;51.612;7.510;2022-11-20T04:41:05;-0.50;99.90
22698;DHT22;11516;51.612;7.510;2022-11-20T04:43:33;-0.60;99.90
22698;DHT22;11516;51.612;7.510;2022-11-20T04:46:00;-0.60;99.90
22698;DHT22;11516;51.612;7.510;2022-11-20T04:48:26;-0.70;99.90
22698;DHT22;11516;51.612;7.510;2022-11-20T04:50:52;-0.70;99.90
22698;DHT22;11516;51.612;7.510;2022-11-20T04:53:19;-0.70;99.90
22698;DHT22;11516;51.612;7.510;2022-11-20T04:55:45;-0.70;99.90
22698;DHT22;11516;51.612;7.510;2022-11-20T04:58:11;-0.70;99.90
22698;DHT22;11516;51.612;7.510;2022-11-20T05:00:37;-0.70;99.90
22698;DHT22;11516;51.612;7.510;2022-11-20T05:03:03;-0.80;99.90
22698;DHT22;11516;51.612;7.510;2022-11-20T05:05:29;-0.80;99.90
22698;DHT22;11516;51.612;7.510;2022-11-20T05:07:57;-0.90;99.90
22698;DHT22;11516;51.612;7.510;2022-11-20T05:10:24;-0.80;99.90
22698;DHT22;11516;51.612;7.510;2022-11-20T05:12:50;-0.90;99.90
22698;DHT22;11516;51.612;7.510;2022-11-20T05:15:15;-0.90;99.90
22698;DHT22;11516;51.612;7.510;2022-11-20T05:17:41;-0.90;99.90
22698;DHT22;11516;51.612;7.510;2022-11-20T05:20:07;-0.90;99.90
22698;DHT22;11516;51.612;7.510;2022-11-20T05:22:32;-1.00;99.90
22698;DHT22;11516;51.612;7.510;2022-11-20T05:24:58;-1.00;99.90
22698;DHT22;11516;51.612;7.510;2022-11-20T05:27:24;-1.00;99.90
22698;DHT22;11516;51.612;7.510;2022-11-20T05:29:49;-1.10;99.90
22698;DHT22;11516;51.612;7.510;2022-11-20T05:32:15;-1.10;99.90
22698;DHT22;11516;51.612;7.510;2022-11-20T05:34:40;-1.20;99.90
22698;DHT22;11516;51.612;7.510;2022-11-20T05:37:06;-1.20;99.90
22698;DHT22;11516;51.612;7.510;2022-11-20T05:39:31;-1.20;99.90
22698;DHT22;11516;51.612;7.510;2022-11-20T05:41:57;-1.20;99.90
22698;DHT22;11516;51.612;7.510;2022-11-20T05:44:41;-1.20;99.90
22698;DHT22;11516;51.612;7.510;2022-11-20T05:47:07;-1.10;99.90
22698;DHT22;11516;51.612;7.510;2022-11-20T05:49:32;-1.30;99.90
22698;DHT22;11516;51.612;7.510;2022-11-20T05:51:58;-1.40;99.90
22698;DHT22;11516;51.612;7.510;2022-11-20T05:54:23;-1.30;99.90
22698;DHT22;11516;51.612;7.510;2022-11-20T05:56:49;-1.40;99.90
22698;DHT22;11516;51.612;7.510;2022-11-20T05:59:14;-1.40;99.90
22698;DHT22;11516;51.612;7.510;2022-11-20T06:01:40;-1.40;99.90
22698;DHT22;11516;51.612;7.510;2022-11-20T06:04:05;-1.40;99.90
22698;DHT22;11516;51.612;7.510;2022-11-20T06:06:31;-1.40;99.90
22698;DHT22;11516;51.612;7.510;2022-11-20T06:08:56;-1.40;99.90
22698;DHT22;11516;51.612;7.510;2022-11-20T06:11:24;-1.40;99.90
22698;DHT22;11516;51.612;7.510;2022-11-20T06:13:49;-1.40;99.90
22698;DHT22;11516;51.612;7.510;2022-11-20T06:16:17;-1.40;99.90
22698;DHT22;11516;51.612;7.510;2022-11-20T06:18:43;-1.50;99.90
22698;DHT22;11516;51.612;7.510;2022-11-20T06:21:12;-1.60;99.90
22698;DHT22;11516;51.612;7.510;2022-11-20T06:23:37;-1.60;99.90
22698;DHT22;11516;51.612;7.510;2022-11-20T06:26:10;-1.50;99.90
22698;DHT22;11516;51.612;7.510;2022-11-20T06:28:36;-1.40;99.90
22698;DHT22;11516;51.612;7.510;2022-11-20T06:31:03;-1.30;99.90
22698;DHT22;11516;51.612;7.510;2022-11-20T06:33:29;-1.20;99.90
22698;DHT22;11516;51.612;7.510;2022-11-20T06:35:59;-1.20;99.90
22698;DHT22;11516;51.612;7.510;2022-11-20T06:38:26;-1.20;99.90
22698;DHT22;11516;51.612;7.510;2022-11-20T06:40:52;-1.10;99.90
22698;DHT22;11516;51.612;7.510;2022-11-20T06:43:17;-1.10;99.90
22698;DHT22;11516;51.612;7.510;2022-11-20T06:45:43;-1.10;99.90
22698;DHT22;11516;51.612;7.510;2022-11-20T06:48:09;-1.10;99.90
22698;DHT22;11516;51.612;7.510;2022-11-20T06:50:36;-1.10;99.90
22698;DHT22;11516;51.612;7.510;2022-11-20T06:53:02;-1.20;99.90
22698;DHT22;11516;51.612;7.510;2022-11-20T06:55:29;-1.20;99.90
22698;DHT22;11516;51.612;7.510;2022-11-20T06:57:54;-1.30;99.90
22698;DHT22;11516;51.612;7.510;2022-11-20T07:00:20;-1.20;99.90
22698;DHT22;11516;51.612;7.510;2022-11-20T07:02:45;-1.20;99.90
22698;DHT22;11516;51.612;7.510;2022-11-20T07:05:11;-1.20;99.90
22698;DHT22;11516;51.612;7.510;2022-11-20T07:07:36;-1.20;99.90
22698;DHT22;11516;51.612;7.510;2022-11-20T07:10:02;-1.30;99.90
22698;DHT22;11516;51.612;7.510;2022-11-20T07:12:28;-1.30;99.90
22698;DHT22;11516;51.612;7.510;2022-11-20T07:14:53;-1.30;99.90
22698;DHT22;11516;51.612;7.510;2022-11-20T07:17:19;-1.30;99.90
22698;DHT22;11516;51.612;7.510;2022-11-20T07:19:44;-1.20;99.90
22698;DHT22;11516;51.612;7.510;2022-11-20T07:22:10;-1.30;99.90
22698;DHT22;11516;51.612;7.510;2022-11-20T07:24:35;-1.40;99.90
22698;DHT22;11516;51.612;7.510;2022-11-20T07:27:01;-1.40;99.90
22698;DHT22;11516;51.612;7.510;2022-11-20T07:29:26;-1.40;99.90
22698;DHT22;11516;51.612;7.510;2022-11-20T07:31:52;-1.30;99.90
22698;DHT22;11516;51.612;7.510;2022-11-20T07:34:17;-1.30;99.90
22698;DHT22;11516;51.612;7.510;2022-11-20T07:36:43;-1.20;99.90
22698;DHT22;11516;51.612;7.510;2022-11-20T07:39:08;-1.20;99.90
22698;DHT22;11516;51.612;7.510;2022-11-20T07:41:34;-1.20;99.90
22698;DHT22;11516;51.612;7.510;2022-11-20T07:43:59;-1.20;99.90
22698;DHT22;11516;51.612;7.510;2022-11-20T07:46:25;-1.20;99.90
22698;DHT22;11516;51.612;7.510;2022-11-20T07:48:50;-1.20;99.90
22698;DHT22;11516;51.612;7.510;2022-11-20T07:51:16;-1.20;99.90
22698;DHT22;11516;51.612;7.510;2022-11-20T07:53:41;-1.20;99.90
22698;DHT22;11516;51.612;7.510;2022-11-20T07:56:07;-1.30;99.90
22698;DHT22;11516;51.612;7.510;2022-11-20T07:58:32;-1.30;99.90
22698;DHT22;11516;51.612;7.510;2022-11-20T08:01:07;-1.40;99.90
22698;DHT22;11516;51.612;7.510;2022-11-20T08:03:33;-1.30;99.90
22698;DHT22;11516;51.612;7.510;2022-11-20T08:05:59;-1.20;99.90
22698;DHT22;11516;51.612;7.510;2022-11-20T08:08:26;-1.10;99.90
22698;DHT22;11516;51.612;7.510;2022-11-20T08:10:52;-1.00;99.90
22698;DHT22;11516;51.612;7.510;2022-11-20T08:13:17;-1.00;99.90
22698;DHT22;11516;51.612;7.510;2022-11-20T08:16:01;-0.80;99.90
22698;DHT22;11516;51.612;7.510;2022-11-20T08:18:27;-0.70;99.90
22698;DHT22;11516;51.612;7.510;2022-11-20T08:20:52;-0.70;99.90
22698;DHT22;11516;51.612;7.510;2022-11-20T08:23:18;-0.60;99.90
22698;DHT22;11516;51.612;7.510;2022-11-20T08:25:43;-0.50;99.90
22698;DHT22;11516;51.612;7.510;2022-11-20T08:28:13;-0.50;99.90
22698;DHT22;11516;51.612;7.510;2022-11-20T08:30:39;-0.50;99.90
22698;DHT22;11516;51.612;7.510;2022-11-20T08:33:07;-0.50;99.90
22698;DHT22;11516;51.612;7.510;2022-11-20T08:35:35;-0.40;99.90
22698;DHT22;11516;51.612;7.510;2022-11-20T08:38:05;-0.40;99.90
22698;DHT22;11516;51.612;7.510;2022-11-20T08:40:31;-0.40;99.90
22698;DHT22;11516;51.612;7.510;2022-11-20T08:42:57;-0.30;99.90
22698;DHT22;11516;51.612;7.510;2022-11-20T08:45:22;-0.30;99.90
22698;DHT22;11516;51.612;7.510;2022-11-20T08:47:48;-0.20;99.90
22698;DHT22;11516;51.612;7.510;2022-11-20T08:50:15;-0.20;99.90
22698;DHT22;11516;51.612;7.510;2022-11-20T08:52:41;-0.10;99.90
22698;DHT22;11516;51.612;7.510;2022-11-20T08:55:07;-0.10;99.90
22698;DHT22;11516;51.612;7.510;2022-11-20T08:57:37;0.00;99.90
22698;DHT22;11516;51.612;7.510;2022-11-20T09:00:04;0.00;99.90
22698;DHT22;11516;51.612;7.510;2022-11-20T09:02:30;0.10;99.90
22698;DHT22;11516;51.612;7.510;2022-11-20T09:04:57;0.10;99.90
22698;DHT22;11516;51.612;7.510;2022-11-20T09:07:23;0.20;99.90
22698;DHT22;11516;51.612;7.510;2022-11-20T09:09:48;0.20;99.90
22698;DHT22;11516;51.612;7.510;2022-11-20T09:12:14;0.30;99.90
22698;DHT22;11516;51.612;7.510;2022-11-20T09:14:40;0.40;99.90
22698;DHT22;11516;51.612;7.510;2022-11-20T09:17:05;0.40;99.90
22698;DHT22;11516;51.612;7.510;2022-11-20T09:19:33;0.50;99.90
22698;DHT22;11516;51.612;7.510;2022-11-20T09:21:58;0.60;99.90
22698;DHT22;11516;51.612;7.510;2022-11-20T09:24:28;0.70;99.90
22698;DHT22;11516;51.612;7.510;2022-11-20T09:26:53;0.70;99.90
22698;DHT22;11516;51.612;7.510;2022-11-20T09:29:19;0.80;99.90
22698;DHT22;11516;51.612;7.510;2022-11-20T09:31:44;0.80;99.90
22698;DHT22;11516;51.612;7.510;2022-11-20T09:34:10;0.90;99.90
22698;DHT22;11516;51.612;7.510;2022-11-20T09:36:35;1.00;99.90
22698;DHT22;11516;51.612;7.510;2022-11-20T09:39:01;1.10;99.90
22698;DHT22;11516;51.612;7.510;2022-11-20T09:41:51;1.30;99.90
22698;DHT22;11516;51.612;7.510;2022-11-20T09:45:28;1.30;99.90
22698;DHT22;11516;51.612;7.510;2022-11-20T09:47:45;1.40;99.90
22698;DHT22;11516;51.612;7.510;2022-11-20T09:50:35;1.60;99.90
22698;DHT22;11516;51.612;7.510;2022-11-20T09:53:17;1.80;99.90
22698;DHT22;11516;51.612;7.510;2022-11-20T09:55:46;1.90;99.90
22698;DHT22;11516;51.612;7.510;2022-11-20T09:58:35;2.00;99.90
22698;DHT22;11516;51.612;7.510;2022-11-20T10:01:13;2.00;99.90
22698;DHT22;11516;51.612;7.510;2022-11-20T10:04:12;2.10;99.90
22698;DHT22;11516;51.612;7.510;2022-11-20T10:06:42;2.20;99.90
22698;DHT22;11516;51.612;7.510;2022-11-20T10:12:04;2.50;99.90
22698;DHT22;11516;51.612;7.510;2022-11-20T10:25:15;2.80;99.90
22698;DHT22;11516;51.612;7.510;2022-11-20T10:30:42;2.90;99.90
22698;DHT22;11516;51.612;7.510;2022-11-20T10:33:21;3.00;99.90
22698;DHT22;11516;51.612;7.510;2022-11-20T10:36:00;2.90;99.90
22698;DHT22;11516;51.612;7.510;2022-11-20T10:38:40;3.00;99.90
22698;DHT22;11516;51.612;7.510;2022-11-20T10:41:17;3.20;99.90
22698;DHT22;11516;51.612;7.510;2022-11-20T10:44:03;3.40;99.90
22698;DHT22;11516;51.612;7.510;2022-11-20T10:46:37;3.50;99.90
22698;DHT22;11516;51.612;7.510;2022-11-20T10:49:11;3.60;99.90
22698;DHT22;11516;51.612;7.510;2022-11-20T10:51:49;3.60;99.90
22698;DHT22;11516;51.612;7.510;2022-11-20T11:00:00;4.00;99.90
22698;DHT22;11516;51.612;7.510;2022-11-20T11:02:43;4.20;99.90
22698;DHT22;11516;51.612;7.510;2022-11-20T11:07:58;4.30;99.90
22698;DHT22;11516;51.612;7.510;2022-11-20T11:12:56;4.30;99.90
22698;DHT22;11516;51.612;7.510;2022-11-20T11:15:41;4.20;99.90
22698;DHT22;11516;51.612;7.510;2022-11-20T11:18:10;4.20;99.90
22698;DHT22;11516;51.612;7.510;2022-11-20T11:20:37;4.20;99.90
22698;DHT22;11516;51.612;7.510;2022-11-20T11:23:03;4.20;99.90
22698;DHT22;11516;51.612;7.510;2022-11-20T11:25:36;4.20;99.90
22698;DHT22;11516;51.612;7.510;2022-11-20T11:28:05;4.10;99.90
22698;DHT22;11516;51.612;7.510;2022-11-20T11:30:45;4.10;99.90
22698;DHT22;11516;51.612;7.510;2022-11-20T11:33:20;4.10;99.90
22698;DHT22;11516;51.612;7.510;2022-11-20T11:35:54;4.00;99.90
22698;DHT22;11516;51.612;7.510;2022-11-20T11:38:43;4.00;99.90
22698;DHT22;11516;51.612;7.510;2022-11-20T11:41:16;4.20;99.90
22698;DHT22;11516;51.612;7.510;2022-11-20T11:43:52;4.10;99.90
22698;DHT22;11516;51.612;7.510;2022-11-20T11:46:38;4.20;99.90
22698;DHT22;11516;51.612;7.510;2022-11-20T11:54:56;4.30;99.90
22698;DHT22;11516;51.612;7.510;2022-11-20T11:57:39;4.40;99.90
22698;DHT22;11516;51.612;7.510;2022-11-20T12:00:16;4.40;99.90
22698;DHT22;11516;51.612;7.510;2022-11-20T12:05:36;4.60;99.90
22698;DHT22;11516;51.612;7.510;2022-11-20T12:08:31;4.50;99.90
22698;DHT22;11516;51.612;7.510;2022-11-20T12:11:11;4.60;99.90
22698;DHT22;11516;51.612;7.510;2022-11-20T12:16:19;4.90;99.90
22698;DHT22;11516;51.612;7.510;2022-11-20T12:18:49;4.90;99.90
22698;DHT22;11516;51.612;7.510;2022-11-20T12:26:56;5.00;99.90
22698;DHT22;11516;51.612;7.510;2022-11-20T12:55:36;5.50;99.90
22698;DHT22;11516;51.612;7.510;2022-11-20T13:00:52;5.30;99.90
22698;DHT22;11516;51.612;7.510;2022-11-20T13:03:39;5.20;99.90
22698;DHT22;11516;51.612;7.510;2022-11-20T13:06:17;5.10;99.90
22698;DHT22;11516;51.612;7.510;2022-11-20T13:08:54;5.00;99.90
22698;DHT22;11516;51.612;7.510;2022-11-20T13:14:24;4.90;99.90
22698;DHT22;11516;51.612;7.510;2022-11-20T13:16:58;4.80;99.90
22698;DHT22;11516;51.612;7.510;2022-11-20T13:19:26;4.80;99.90
22698;DHT22;11516;51.612;7.510;2022-11-20T13:21:52;4.80;99.90
22698;DHT22;11516;51.612;7.510;2022-11-20T13:29:28;4.50;99.90
22698;DHT22;11516;51.612;7.510;2022-11-20T13:32:17;4.50;99.90
22698;DHT22;11516;51.612;7.510;2022-11-20T13:34:58;4.50;99.90
22698;DHT22;11516;51.612;7.510;2022-11-20T13:37:38;4.50;99.90
22698;DHT22;11516;51.612;7.510;2022-11-20T13:42:44;4.30;99.90
22698;DHT22;11516;51.612;7.510;2022-11-20T13:45:21;4.30;99.90
22698;DHT22;11516;51.612;7.510;2022-11-20T13:47:51;4.20;99.90
22698;DHT22;11516;51.612;7.510;2022-11-20T13:50:17;4.30;99.90
22698;DHT22;11516;51.612;7.510;2022-11-20T13:55:26;4.20;99.90
22698;DHT22;11516;51.612;7.510;2022-11-20T13:58:02;4.20;99.90
22698;DHT22;11516;51.612;7.510;2022-11-20T14:00:30;4.30;99.90
22698;DHT22;11516;51.612;7.510;2022-11-20T14:05:36;4.20;99.90
22698;DHT22;11516;51.612;7.510;2022-11-20T14:08:05;4.20;99.90
22698;DHT22;11516;51.612;7.510;2022-11-20T14:10:31;4.10;99.90
22698;DHT22;11516;51.612;7.510;2022-11-20T14:12:58;4.10;99.90
22698;DHT22;11516;51.612;7.510;2022-11-20T14:15:32;4.10;99.90
22698;DHT22;11516;51.612;7.510;2022-11-20T14:17:58;4.00;99.90
22698;DHT22;11516;51.612;7.510;2022-11-20T14:20:27;4.00;99.90
22698;DHT22;11516;51.612;7.510;2022-11-20T14:22:54;4.00;99.90
22698;DHT22;11516;51.612;7.510;2022-11-20T14:25:22;4.00;99.90
22698;DHT22;11516;51.612;7.510;2022-11-20T14:27:56;4.00;99.90
22698;DHT22;11516;51.612;7.510;2022-11-20T14:30:25;4.00;99.90
22698;DHT22;11516;51.612;7.510;2022-11-20T14:32:53;4.00;99.90
22698;DHT22;11516;51.612;7.510;2022-11-20T14:35:27;4.00;99.90
22698;DHT22;11516;51.612;7.510;2022-11-20T14:37:55;3.90;99.90
22698;DHT22;11516;51.612;7.510;2022-11-20T14:42:49;3.90;99.90
22698;DHT22;11516;51.612;7.510;2022-11-20T14:45:15;3.90;99.90
22698;DHT22;11516;51.612;7.510;2022-11-20T14:47:42;3.90;99.90
22698;DHT22;11516;51.612;7.510;2022-11-20T14:50:23;4.00;99.90
22698;DHT22;11516;51.612;7.510;2022-11-20T14:52:57;4.00;99.90
22698;DHT22;11516;51.612;7.510;2022-11-20T14:55:33;4.00;99.90
22698;DHT22;11516;51.612;7.510;2022-11-20T14:58:05;4.00;99.90
22698;DHT22;11516;51.612;7.510;2022-11-20T15:00:33;4.00;99.90
22698;DHT22;11516;51.612;7.510;2022-11-20T15:02:59;3.90;99.90
22698;DHT22;11516;51.612;7.510;2022-11-20T15:05:46;3.90;99.90
22698;DHT22;11516;51.612;7.510;2022-11-20T15:08:13;3.90;99.90
22698;DHT22;11516;51.612;7.510;2022-11-20T15:10:45;3.90;99.90
22698;DHT22;11516;51.612;7.510;2022-11-20T15:13:40;3.90;99.90
22698;DHT22;11516;51.612;7.510;2022-11-20T15:16:18;3.90;99.90
22698;DHT22;11516;51.612;7.510;2022-11-20T15:18:44;3.80;99.90
22698;DHT22;11516;51.612;7.510;2022-11-20T15:21:19;3.80;99.90
22698;DHT22;11516;51.612;7.510;2022-11-20T15:23:48;3.80;99.90
22698;DHT22;11516;51.612;7.510;2022-11-20T15:26:20;3.80;99.90
22698;DHT22;11516;51.612;7.510;2022-11-20T15:28:47;3.70;99.90
22698;DHT22;11516;51.612;7.510;2022-11-20T15:31:17;3.70;99.90
22698;DHT22;11516;51.612;7.510;2022-11-20T15:33:43;3.60;99.90
22698;DHT22;11516;51.612;7.510;2022-11-20T15:36:09;3.60;99.90
22698;DHT22;11516;51.612;7.510;2022-11-20T15:38:35;3.60;99.90
22698;DHT22;11516;51.612;7.510;2022-11-20T15:41:01;3.60;99.90
22698;DHT22;11516;51.612;7.510;2022-11-20T15:43:26;3.70;99.90
22698;DHT22;11516;51.612;7.510;2022-11-20T15:45:59;3.70;99.90
22698;DHT22;11516;51.612;7.510;2022-11-20T15:48:27;3.70;99.90
22698;DHT22;11516;51.612;7.510;2022-11-20T15:50:58;3.70;99.90
22698;DHT22;11516;51.612;7.510;2022-11-20T15:53:24;3.70;99.90
22698;DHT22;11516;51.612;7.510;2022-11-20T15:55:50;3.70;99.90
22698;DHT22;11516;51.612;7.510;2022-11-20T15:58:16;3.80;99.90
22698;DHT22;11516;51.612;7.510;2022-11-20T16:00:42;3.80;99.90
22698;DHT22;11516;51.612;7.510;2022-11-20T16:03:12;3.90;99.90
22698;DHT22;11516;51.612;7.510;2022-11-20T16:05:38;3.80;99.90
22698;DHT22;11516;51.612;7.510;2022-11-20T16:08:04;3.80;99.90
22698;DHT22;11516;51.612;7.510;2022-11-20T16:10:29;3.70;99.90
22698;DHT22;11516;51.612;7.510;2022-11-20T16:12:55;3.70;99.90
22698;DHT22;11516;51.612;7.510;2022-11-20T16:15:39;3.60;99.90
22698;DHT22;11516;51.612;7.510;2022-11-20T16:18:13;3.60;99.90
22698;DHT22;11516;51.612;7.510;2022-11-20T16:20:39;3.60;99.90
22698;DHT22;11516;51.612;7.510;2022-11-20T16:23:05;3.60;99.90
22698;DHT22;11516;51.612;7.510;2022-11-20T16:25:31;3.50;99.90
22698;DHT22;11516;51.612;7.510;2022-11-20T16:27:57;3.40;99.90
22698;DHT22;11516;51.612;7.510;2022-11-20T16:30:22;3.40;99.90
22698;DHT22;11516;51.612;7.510;2022-11-20T16:32:48;3.40;99.90
22698;DHT22;11516;51.612;7.510;2022-11-20T16:35:14;3.40;99.90
22698;DHT22;11516;51.612;7.510;2022-11-20T16:37:39;3.30;99.90
22698;DHT22;11516;51.612;7.510;2022-11-20T16:40:05;3.40;99.90
22698;DHT22;11516;51.612;7.510;2022-11-20T16:42:35;3.30;99.90
22698;DHT22;11516;51.612;7.510;2022-11-20T16:45:01;3.30;99.90
22698;DHT22;11516;51.612;7.510;2022-11-20T16:47:27;3.30;99.90
22698;DHT22;11516;51.612;7.510;2022-11-20T16:49:52;3.30;99.90
22698;DHT22;11516;51.612;7.510;2022-11-20T16:52:18;3.30;99.90
22698;DHT22;11516;51.612;7.510;2022-11-20T16:54:43;3.30;99.90
22698;DHT22;11516;51.612;7.510;2022-11-20T16:57:09;3.30;99.90
22698;DHT22;11516;51.612;7.510;2022-11-20T16:59:34;3.20;99.90
22698;DHT22;11516;51.612;7.510;2022-11-20T17:02:00;3.20;99.90
22698;DHT22;11516;51.612;7.510;2022-11-20T17:04:25;3.20;99.90
22698;DHT22;11516;51.612;7.510;2022-11-20T17:06:51;3.20;99.90
22698;DHT22;11516;51.612;7.510;2022-11-20T17:09:16;3.20;99.90
22698;DHT22;11516;51.612;7.510;2022-11-20T17:11:42;3.30;99.90
22698;DHT22;11516;51.612;7.510;2022-11-20T17:14:12;3.30;99.90
22698;DHT22;11516;51.612;7.510;2022-11-20T17:16:37;3.20;99.90
22698;DHT22;11516;51.612;7.510;2022-11-20T17:19:03;3.20;99.90
22698;DHT22;11516;51.612;7.510;2022-11-20T17:21:31;3.20;99.90
22698;DHT22;11516;51.612;7.510;2022-11-20T17:24:00;3.20;99.90